sensor_id;sensor_type;location;lat;lon;timestamp;pressure;altitude;pressure_sealevel;temperature;humidity
11672;BME280;5892;43.412;24.612;2023-03-01T00:01:10;100961.16;;;4.83;100.00
11672;BME280;5892;43.412;24.612;2023-03-01T00:03:37;100957.03;;;4.76;100.00
11672;BME280;5892;43.412;24.612;2023-03-01T00:06:05;100935.41;;;4.59;100.00
11672;BME280;5892;43.412;24.612;2023-03-01T00:08:32;100969.03;;;4.80;100.00
11672;BME280;5892;43.412;24.612;2023-03-01T00:11:01;100950.31;;;4.83;100.00
11672;BME280;5892;43.412;24.612;2023-03-01T00:13:28;100952.78;;;4.85;100.00
11672;BME280;5892;43.412;24.612;2023-03-01T00:15:56;100945.59;;;4.74;100.00
11672;BME280;5892;43.412;24.612;2023-03-01T00:18:23;100934.94;;;4.67;100.00
11672;BME280;5892;43.412;24.612;2023-03-01T00:20:51;100843.28;;;4.20;100.00
11672;BME280;5892;43.412;24.612;2023-03-01T00:23:18;100939.44;;;4.83;100.00
11672;BME280;5892;43.412;24.612;2023-03-01T00:25:45;100934.50;;;4.75;100.00
11672;BME280;5892;43.412;24.612;2023-03-01T00:28:11;100936.94;;;4.77;100.00
11672;BME280;5892;43.412;24.612;2023-03-01T00:30:38;100905.91;;;4.67;100.00
11672;BME280;5892;43.412;24.612;2023-03-01T00:33:07;100935.63;;;4.79;100.00
11672;BME280;5892;43.412;24.612;2023-03-01T00:35:34;100921.56;;;4.87;100.00
11672;BME280;5892;43.412;24.612;2023-03-01T00:38:01;100827.88;;;4.26;100.00
11672;BME280;5892;43.412;24.612;2023-03-01T00:40:30;100917.38;;;4.75;100.00
11672;BME280;5892;43.412;24.612;2023-03-01T00:42:57;100910.34;;;4.79;100.00
11672;BME280;5892;43.412;24.612;2023-03-01T00:45:24;100905.75;;;4.79;100.00
11672;BME280;5892;43.412;24.612;2023-03-01T00:47:51;100896.25;;;4.82;100.00
11672;BME280;5892;43.412;24.612;2023-03-01T00:50:20;100861.75;;;4.50;100.00
11672;BME280;5892;43.412;24.612;2023-03-01T00:52:50;100886.84;;;4.62;100.00
11672;BME280;5892;43.412;24.612;2023-03-01T00:55:32;100849.44;;;4.38;100.00
11672;BME280;5892;43.412;24.612;2023-03-01T00:58:01;100870.69;;;4.46;100.00
11672;BME280;5892;43.412;24.612;2023-03-01T01:03:30;100757.94;;;3.74;100.00
11672;BME280;5892;43.412;24.612;2023-03-01T01:05:58;100794.00;;;4.02;100.00
11672;BME280;5892;43.412;24.612;2023-03-01T01:08:30;100858.59;;;4.58;100.00
11672;BME280;5892;43.412;24.612;2023-03-01T01:10:57;100862.09;;;4.54;100.00
11672;BME280;5892;43.412;24.612;2023-03-01T01:13:23;100821.44;;;4.32;100.00
11672;BME280;5892;43.412;24.612;2023-03-01T01:15:50;100836.31;;;4.56;100.00
11672;BME280;5892;43.412;24.612;2023-03-01T01:18:17;100863.09;;;4.75;100.00
11672;BME280;5892;43.412;24.612;2023-03-01T01:20:44;100864.41;;;4.72;100.00
11672;BME280;5892;43.412;24.612;2023-03-01T01:23:12;100838.00;;;4.62;100.00
11672;BME280;5892;43.412;24.612;2023-03-01T01:25:42;100869.91;;;4.82;100.00
11672;BME280;5892;43.412;24.612;2023-03-01T01:28:09;100864.75;;;4.49;100.00
11672;BME280;5892;43.412;24.612;2023-03-01T01:30:35;100858.84;;;4.57;100.00
11672;BME280;5892;43.412;24.612;2023-03-01T01:33:02;100823.88;;;4.60;100.00
11672;BME280;5892;43.412;24.612;2023-03-01T01:35:29;100872.56;;;4.72;100.00
11672;BME280;5892;43.412;24.612;2023-03-01T01:37:56;100840.84;;;4.78;100.00
11672;BME280;5892;43.412;24.612;2023-03-01T01:40:32;100844.94;;;4.80;100.00
11672;BME280;5892;43.412;24.612;2023-03-01T01:42:59;100785.38;;;4.37;100.00
11672;BME280;5892;43.412;24.612;2023-03-01T01:45:32;100831.69;;;4.89;100.00
11672;BME280;5892;43.412;24.612;2023-03-01T01:48:03;100842.06;;;4.92;100.00
11672;BME280;5892;43.412;24.612;2023-03-01T01:50:32;100839.56;;;4.85;100.00
11672;BME280;5892;43.412;24.612;2023-03-01T01:53:06;100839.88;;;4.94;100.00
11672;BME280;5892;43.412;24.612;2023-03-01T01:55:36;100841.47;;;4.90;100.00
11672;BME280;5892;43.412;24.612;2023-03-01T01:58:05;100794.03;;;4.60;100.00
11672;BME280;5892;43.412;24.612;2023-03-01T02:00:34;100851.28;;;4.91;100.00
11672;BME280;5892;43.412;24.612;2023-03-01T02:03:03;100851.56;;;4.94;100.00
11672;BME280;5892;43.412;24.612;2023-03-01T02:05:37;100857.88;;;5.05;100.00
11672;BME280;5892;43.412;24.612;2023-03-01T02:08:05;100838.69;;;4.80;100.00
11672;BME280;5892;43.412;24.612;2023-03-01T02:10:35;100759.72;;;4.49;100.00
11672;BME280;5892;43.412;24.612;2023-03-01T02:13:03;100815.63;;;4.82;100.00
11672;BME280;5892;43.412;24.612;2023-03-01T02:15:32;100859.81;;;5.09;100.00
11672;BME280;5892;43.412;24.612;2023-03-01T02:17:59;100862.00;;;5.07;100.00
11672;BME280;5892;43.412;24.612;2023-03-01T02:20:34;100863.09;;;5.11;100.00
11672;BME280;5892;43.412;24.612;2023-03-01T02:23:02;100859.50;;;5.01;100.00
11672;BME280;5892;43.412;24.612;2023-03-01T02:25:39;100841.22;;;4.91;100.00
11672;BME280;5892;43.412;24.612;2023-03-01T02:28:20;100846.91;;;4.90;100.00
11672;BME280;5892;43.412;24.612;2023-03-01T02:30:48;100855.50;;;5.13;100.00
11672;BME280;5892;43.412;24.612;2023-03-01T02:33:31;100807.97;;;4.74;100.00
11672;BME280;5892;43.412;24.612;2023-03-01T02:36:04;100839.63;;;4.95;100.00
11672;BME280;5892;43.412;24.612;2023-03-01T02:38:32;100852.75;;;5.08;100.00
11672;BME280;5892;43.412;24.612;2023-03-01T02:41:00;100824.19;;;5.01;100.00
11672;BME280;5892;43.412;24.612;2023-03-01T02:43:31;100841.38;;;5.11;100.00
11672;BME280;5892;43.412;24.612;2023-03-01T02:46:04;100694.78;;;4.06;100.00
11672;BME280;5892;43.412;24.612;2023-03-01T02:48:40;100843.81;;;5.13;100.00
11672;BME280;5892;43.412;24.612;2023-03-01T02:51:20;100817.50;;;4.82;100.00
11672;BME280;5892;43.412;24.612;2023-03-01T02:53:56;100848.66;;;5.06;100.00
11672;BME280;5892;43.412;24.612;2023-03-01T02:56:26;100808.25;;;4.78;100.00
11672;BME280;5892;43.412;24.612;2023-03-01T02:58:54;100852.44;;;5.00;100.00
11672;BME280;5892;43.412;24.612;2023-03-01T03:01:26;100848.66;;;5.06;100.00
11672;BME280;5892;43.412;24.612;2023-03-01T03:04:02;100850.81;;;5.04;100.00
11672;BME280;5892;43.412;24.612;2023-03-01T03:06:29;100806.53;;;4.66;100.00
11672;BME280;5892;43.412;24.612;2023-03-01T03:08:56;100856.13;;;4.89;100.00
11672;BME280;5892;43.412;24.612;2023-03-01T03:11:23;100857.81;;;4.95;100.00
11672;BME280;5892;43.412;24.612;2023-03-01T03:13:50;100836.84;;;4.85;100.00
11672;BME280;5892;43.412;24.612;2023-03-01T03:16:27;100851.59;;;4.99;100.00
11672;BME280;5892;43.412;24.612;2023-03-01T03:18:55;100846.94;;;4.95;100.00
11672;BME280;5892;43.412;24.612;2023-03-01T03:21:30;100780.63;;;4.49;100.00
11672;BME280;5892;43.412;24.612;2023-03-01T03:23:57;100854.84;;;4.96;100.00
11672;BME280;5892;43.412;24.612;2023-03-01T03:26:24;100748.19;;;4.32;100.00
11672;BME280;5892;43.412;24.612;2023-03-01T03:28:51;100834.66;;;4.87;100.00
11672;BME280;5892;43.412;24.612;2023-03-01T03:31:19;100834.38;;;4.84;100.00
11672;BME280;5892;43.412;24.612;2023-03-01T03:33:46;100768.88;;;4.38;100.00
11672;BME280;5892;43.412;24.612;2023-03-01T03:36:15;100756.03;;;4.29;100.00
11672;BME280;5892;43.412;24.612;2023-03-01T03:38:43;100828.66;;;4.80;100.00
11672;BME280;5892;43.412;24.612;2023-03-01T03:41:11;100831.69;;;4.89;100.00
11672;BME280;5892;43.412;24.612;2023-03-01T03:43:40;100838.78;;;4.90;100.00
11672;BME280;5892;43.412;24.612;2023-03-01T03:46:09;100835.06;;;5.01;100.00
11672;BME280;5892;43.412;24.612;2023-03-01T03:48:38;100835.56;;;4.98;100.00
11672;BME280;5892;43.412;24.612;2023-03-01T03:51:06;100839.66;;;5.00;100.00
11672;BME280;5892;43.412;24.612;2023-03-01T03:53:33;100844.81;;;4.97;100.00
11672;BME280;5892;43.412;24.612;2023-03-01T03:56:00;100798.84;;;4.53;100.00
11672;BME280;5892;43.412;24.612;2023-03-01T03:58:27;100797.09;;;4.42;100.00
11672;BME280;5892;43.412;24.612;2023-03-01T04:00:55;100845.22;;;4.84;100.00
11672;BME280;5892;43.412;24.612;2023-03-01T04:03:24;100848.28;;;4.92;100.00
11672;BME280;5892;43.412;24.612;2023-03-01T04:05:53;100827.31;;;4.83;100.00
11672;BME280;5892;43.412;24.612;2023-03-01T04:08:21;100803.03;;;4.71;100.00
11672;BME280;5892;43.412;24.612;2023-03-01T04:10:50;100850.25;;;4.97;100.00
11672;BME280;5892;43.412;24.612;2023-03-01T04:13:19;100852.38;;;4.95;100.00
11672;BME280;5892;43.412;24.612;2023-03-01T04:15:48;100849.63;;;4.90;100.00
11672;BME280;5892;43.412;24.612;2023-03-01T04:18:17;100852.09;;;4.91;100.00
11672;BME280;5892;43.412;24.612;2023-03-01T04:20:45;100838.47;;;4.86;100.00
11672;BME280;5892;43.412;24.612;2023-03-01T04:23:15;100850.44;;;4.90;100.00
11672;BME280;5892;43.412;24.612;2023-03-01T04:25:46;100845.56;;;4.92;100.00
11672;BME280;5892;43.412;24.612;2023-03-01T04:28:19;100857.56;;;4.96;100.00
11672;BME280;5892;43.412;24.612;2023-03-01T04:30:46;100864.06;;;4.95;100.00
11672;BME280;5892;43.412;24.612;2023-03-01T04:33:13;100864.38;;;4.99;100.00
11672;BME280;5892;43.412;24.612;2023-03-01T04:35:40;100838.16;;;4.83;100.00
11672;BME280;5892;43.412;24.612;2023-03-01T04:38:07;100811.25;;;4.44;100.00
11672;BME280;5892;43.412;24.612;2023-03-01T04:40:36;100855.03;;;4.85;100.00
11672;BME280;5892;43.412;24.612;2023-03-01T04:43:04;100854.53;;;4.93;100.00
11672;BME280;5892;43.412;24.612;2023-03-01T04:45:32;100818.94;;;4.57;100.00
11672;BME280;5892;43.412;24.612;2023-03-01T04:48:00;100840.09;;;4.87;100.00
11672;BME280;5892;43.412;24.612;2023-03-01T04:50:27;100835.97;;;4.80;100.00
11672;BME280;5892;43.412;24.612;2023-03-01T04:52:54;100852.06;;;4.86;100.00
11672;BME280;5892;43.412;24.612;2023-03-01T04:55:24;100853.41;;;4.89;100.00
11672;BME280;5892;43.412;24.612;2023-03-01T04:57:53;100826.06;;;4.63;100.00
11672;BME280;5892;43.412;24.612;2023-03-01T05:00:21;100857.69;;;4.80;100.00
11672;BME280;5892;43.412;24.612;2023-03-01T05:02:50;100857.13;;;4.78;100.00
11672;BME280;5892;43.412;24.612;2023-03-01T05:05:25;100838.34;;;4.71;100.00
11672;BME280;5892;43.412;24.612;2023-03-01T05:07:54;100785.50;;;4.20;100.00
11672;BME280;5892;43.412;24.612;2023-03-01T05:10:22;100815.78;;;4.65;100.00
11672;BME280;5892;43.412;24.612;2023-03-01T05:12:49;100843.09;;;4.86;100.00
11672;BME280;5892;43.412;24.612;2023-03-01T05:15:19;100848.44;;;4.76;100.00
11672;BME280;5892;43.412;24.612;2023-03-01T05:17:47;100806.06;;;4.43;100.00
11672;BME280;5892;43.412;24.612;2023-03-01T05:20:14;100804.34;;;4.63;100.00
11672;BME280;5892;43.412;24.612;2023-03-01T05:22:41;100823.41;;;4.68;100.00
11672;BME280;5892;43.412;24.612;2023-03-01T05:25:09;100827.03;;;4.84;100.00
11672;BME280;5892;43.412;24.612;2023-03-01T05:27:36;100825.63;;;4.77;100.00
11672;BME280;5892;43.412;24.612;2023-03-01T05:30:03;100784.19;;;4.54;100.00
11672;BME280;5892;43.412;24.612;2023-03-01T05:32:41;100787.78;;;4.60;100.00
11672;BME280;5892;43.412;24.612;2023-03-01T05:35:10;100833.56;;;4.83;100.00
11672;BME280;5892;43.412;24.612;2023-03-01T05:37:40;100825.00;;;4.64;100.00
11672;BME280;5892;43.412;24.612;2023-03-01T05:40:09;100830.50;;;4.75;100.00
11672;BME280;5892;43.412;24.612;2023-03-01T05:42:42;100767.78;;;4.39;100.00
11672;BME280;5892;43.412;24.612;2023-03-01T05:45:10;100847.16;;;4.88;100.00
11672;BME280;5892;43.412;24.612;2023-03-01T05:47:41;100825.97;;;4.85;100.00
11672;BME280;5892;43.412;24.612;2023-03-01T05:50:11;100856.44;;;4.92;100.00
11672;BME280;5892;43.412;24.612;2023-03-01T05:52:38;100856.44;;;4.92;100.00
11672;BME280;5892;43.412;24.612;2023-03-01T05:55:06;100849.03;;;4.83;100.00
11672;BME280;5892;43.412;24.612;2023-03-01T05:57:33;100827.22;;;4.73;100.00
11672;BME280;5892;43.412;24.612;2023-03-01T06:00:00;100862.06;;;4.81;100.00
11672;BME280;5892;43.412;24.612;2023-03-01T06:02:27;100804.22;;;4.48;100.00
11672;BME280;5892;43.412;24.612;2023-03-01T06:04:56;100749.47;;;4.24;100.00
11672;BME280;5892;43.412;24.612;2023-03-01T06:07:23;100824.81;;;4.76;100.00
11672;BME280;5892;43.412;24.612;2023-03-01T06:09:50;100820.19;;;4.77;100.00
11672;BME280;5892;43.412;24.612;2023-03-01T06:12:16;100790.69;;;4.53;100.00
11672;BME280;5892;43.412;24.612;2023-03-01T06:14:45;100835.91;;;4.69;100.00
11672;BME280;5892;43.412;24.612;2023-03-01T06:17:12;100867.78;;;4.84;100.00
11672;BME280;5892;43.412;24.612;2023-03-01T06:19:39;100869.72;;;4.89;100.00
11672;BME280;5892;43.412;24.612;2023-03-01T06:22:08;100861.59;;;4.94;100.00
11672;BME280;5892;43.412;24.612;2023-03-01T06:24:34;100846.63;;;4.86;100.00
11672;BME280;5892;43.412;24.612;2023-03-01T06:27:01;100859.47;;;4.96;100.00
11672;BME280;5892;43.412;24.612;2023-03-01T06:29:28;100884.41;;;4.93;100.00
11672;BME280;5892;43.412;24.612;2023-03-01T06:31:55;100833.75;;;4.77;100.00
11672;BME280;5892;43.412;24.612;2023-03-01T06:34:22;100861.09;;;4.97;100.00
11672;BME280;5892;43.412;24.612;2023-03-01T06:36:49;100864.38;;;4.99;100.00
11672;BME280;5892;43.412;24.612;2023-03-01T06:39:17;100861.59;;;4.94;100.00
11672;BME280;5892;43.412;24.612;2023-03-01T06:41:44;100790.16;;;4.56;100.00
11672;BME280;5892;43.412;24.612;2023-03-01T06:44:11;100825.66;;;4.82;100.00
11672;BME280;5892;43.412;24.612;2023-03-01T06:46:39;100808.47;;;4.71;100.00
11672;BME280;5892;43.412;24.612;2023-03-01T06:49:05;100868.22;;;5.08;100.00
11672;BME280;5892;43.412;24.612;2023-03-01T06:51:35;100862.81;;;5.13;100.00
11672;BME280;5892;43.412;24.612;2023-03-01T06:54:02;100793.28;;;4.70;100.00
11672;BME280;5892;43.412;24.612;2023-03-01T06:56:31;100834.97;;;4.91;100.00
11672;BME280;5892;43.412;24.612;2023-03-01T06:58:59;100825.22;;;4.95;100.00
11672;BME280;5892;43.412;24.612;2023-03-01T07:01:26;100862.13;;;5.28;100.00
11672;BME280;5892;43.412;24.612;2023-03-01T07:03:53;100860.47;;;5.22;100.00
11672;BME280;5892;43.412;24.612;2023-03-01T07:06:19;100863.97;;;5.17;100.00
11672;BME280;5892;43.412;24.612;2023-03-01T07:08:47;100863.72;;;5.24;100.00
11672;BME280;5892;43.412;24.612;2023-03-01T07:11:14;100804.97;;;4.71;100.00
11672;BME280;5892;43.412;24.612;2023-03-01T07:13:42;100820.03;;;4.93;100.00
11672;BME280;5892;43.412;24.612;2023-03-01T07:16:09;100860.22;;;5.23;100.00
11672;BME280;5892;43.412;24.612;2023-03-01T07:18:36;100859.72;;;5.31;100.00
11672;BME280;5892;43.412;24.612;2023-03-01T07:21:07;100867.56;;;5.28;100.00
11672;BME280;5892;43.412;24.612;2023-03-01T07:23:34;100867.56;;;5.28;100.00
11672;BME280;5892;43.412;24.612;2023-03-01T07:26:01;100859.06;;;5.19;100.00
11672;BME280;5892;43.412;24.612;2023-03-01T07:28:34;100789.28;;;4.83;100.00
11672;BME280;5892;43.412;24.612;2023-03-01T07:31:06;100875.59;;;5.49;100.00
11672;BME280;5892;43.412;24.612;2023-03-01T07:33:33;100842.81;;;5.24;100.00
11672;BME280;5892;43.412;24.612;2023-03-01T07:36:01;100841.44;;;5.22;100.00
11672;BME280;5892;43.412;24.612;2023-03-01T07:38:29;100876.38;;;5.50;100.00
11672;BME280;5892;43.412;24.612;2023-03-01T07:40:58;100874.75;;;5.44;100.00
11672;BME280;5892;43.412;24.612;2023-03-01T07:43:25;100872.56;;;5.46;100.00
11672;BME280;5892;43.412;24.612;2023-03-01T07:45:52;100861.88;;;5.34;100.00
11672;BME280;5892;43.412;24.612;2023-03-01T07:48:21;100860.34;;;5.43;100.00
11672;BME280;5892;43.412;24.612;2023-03-01T07:50:48;100855.94;;;5.37;100.00
11672;BME280;5892;43.412;24.612;2023-03-01T07:53:15;100866.31;;;5.45;100.00
11672;BME280;5892;43.412;24.612;2023-03-01T07:55:43;100872.91;;;5.54;100.00
11672;BME280;5892;43.412;24.612;2023-03-01T07:58:10;100879.38;;;5.48;100.00
11672;BME280;5892;43.412;24.612;2023-03-01T08:00:37;100835.81;;;5.33;100.00
11672;BME280;5892;43.412;24.612;2023-03-01T08:03:03;100874.00;;;5.59;100.00
11672;BME280;5892;43.412;24.612;2023-03-01T08:05:32;100808.03;;;5.21;100.00
11672;BME280;5892;43.412;24.612;2023-03-01T08:07:59;100873.78;;;5.65;100.00
11672;BME280;5892;43.412;24.612;2023-03-01T08:10:25;100841.56;;;5.42;100.00
11672;BME280;5892;43.412;24.612;2023-03-01T08:12:52;100782.94;;;5.09;100.00
11672;BME280;5892;43.412;24.612;2023-03-01T08:15:19;100813.47;;;5.26;100.00
11672;BME280;5892;43.412;24.612;2023-03-01T08:18:00;100858.94;;;5.41;100.00
11672;BME280;5892;43.412;24.612;2023-03-01T08:20:27;100866.59;;;5.44;100.00
11672;BME280;5892;43.412;24.612;2023-03-01T08:22:57;100854.59;;;5.40;100.00
11672;BME280;5892;43.412;24.612;2023-03-01T08:25:24;100860.31;;;5.38;100.00
11672;BME280;5892;43.412;24.612;2023-03-01T08:27:51;100854.63;;;5.50;100.00
11672;BME280;5892;43.412;24.612;2023-03-01T08:30:19;100860.91;;;5.50;100.00
11672;BME280;5892;43.412;24.612;2023-03-01T08:32:49;100834.63;;;5.19;100.00
11672;BME280;5892;43.412;24.612;2023-03-01T08:35:16;100813.38;;;5.11;100.00
11672;BME280;5892;43.412;24.612;2023-03-01T08:37:43;100874.97;;;5.37;100.00
11672;BME280;5892;43.412;24.612;2023-03-01T08:40:12;100865.75;;;5.38;100.00
11672;BME280;5892;43.412;24.612;2023-03-01T08:42:40;100863.50;;;5.30;100.00
11672;BME280;5892;43.412;24.612;2023-03-01T08:45:09;100853.22;;;5.37;100.00
11672;BME280;5892;43.412;24.612;2023-03-01T08:47:36;100860.28;;;5.33;100.00
11672;BME280;5892;43.412;24.612;2023-03-01T08:50:04;100863.25;;;5.32;100.00
11672;BME280;5892;43.412;24.612;2023-03-01T08:52:32;100843.09;;;5.23;100.00
11672;BME280;5892;43.412;24.612;2023-03-01T08:54:59;100871.47;;;5.42;100.00
11672;BME280;5892;43.412;24.612;2023-03-01T08:57:29;100758.81;;;4.71;100.00
11672;BME280;5892;43.412;24.612;2023-03-01T08:59:59;100844.47;;;5.30;100.00
11672;BME280;5892;43.412;24.612;2023-03-01T09:02:26;100869.03;;;5.45;100.00
11672;BME280;5892;43.412;24.612;2023-03-01T09:04:53;100873.63;;;5.45;100.00
11672;BME280;5892;43.412;24.612;2023-03-01T09:07:19;100866.06;;;5.47;100.00
11672;BME280;5892;43.412;24.612;2023-03-01T09:09:46;100850.72;;;5.31;100.00
11672;BME280;5892;43.412;24.612;2023-03-01T09:12:13;100771.66;;;4.85;100.00
11672;BME280;5892;43.412;24.612;2023-03-01T09:14:42;100867.69;;;5.48;100.00
11672;BME280;5892;43.412;24.612;2023-03-01T09:17:08;100863.63;;;5.55;100.00
11672;BME280;5892;43.412;24.612;2023-03-01T09:19:35;100870.44;;;5.53;100.00
11672;BME280;5892;43.412;24.612;2023-03-01T09:22:03;100873.91;;;5.43;100.00
11672;BME280;5892;43.412;24.612;2023-03-01T09:24:35;100865.78;;;5.43;100.00
11672;BME280;5892;43.412;24.612;2023-03-01T09:27:02;100863.94;;;5.54;100.00
11672;BME280;5892;43.412;24.612;2023-03-01T09:29:31;100823.84;;;5.34;100.00
11672;BME280;5892;43.412;24.612;2023-03-01T09:31:59;100864.78;;;5.60;100.00
11672;BME280;5892;43.412;24.612;2023-03-01T09:34:26;100832.13;;;5.54;100.00
11672;BME280;5892;43.412;24.612;2023-03-01T09:36:53;100859.13;;;5.81;100.00
11672;BME280;5892;43.412;24.612;2023-03-01T09:39:20;100841.44;;;5.69;100.00
11672;BME280;5892;43.412;24.612;2023-03-01T09:41:56;100800.00;;;5.46;100.00
11672;BME280;5892;43.412;24.612;2023-03-01T09:44:31;100848.06;;;5.88;100.00
11672;BME280;5892;43.412;24.612;2023-03-01T09:47:01;100857.28;;;5.87;100.00
11672;BME280;5892;43.412;24.612;2023-03-01T09:49:48;100785.25;;;5.32;100.00
11672;BME280;5892;43.412;24.612;2023-03-01T09:52:25;100828.31;;;5.61;100.00
11672;BME280;5892;43.412;24.612;2023-03-01T09:54:54;100774.63;;;5.31;100.00
11672;BME280;5892;43.412;24.612;2023-03-01T09:57:28;100867.09;;;5.88;100.00
11672;BME280;5892;43.412;24.612;2023-03-01T10:00:14;100847.72;;;5.79;100.00
11672;BME280;5892;43.412;24.612;2023-03-01T10:02:45;100859.44;;;5.85;100.00
11672;BME280;5892;43.412;24.612;2023-03-01T10:05:25;100849.41;;;5.85;100.00
11672;BME280;5892;43.412;24.612;2023-03-01T10:08:06;100858.69;;;5.94;100.00
11672;BME280;5892;43.412;24.612;2023-03-01T10:10:39;100863.00;;;5.85;100.00
11672;BME280;5892;43.412;24.612;2023-03-01T10:13:13;100867.09;;;5.88;100.00
11672;BME280;5892;43.412;24.612;2023-03-01T10:15:44;100861.16;;;5.91;100.00
11672;BME280;5892;43.412;24.612;2023-03-01T10:18:19;100818.88;;;5.73;100.00
11672;BME280;5892;43.412;24.612;2023-03-01T10:20:52;100855.66;;;5.86;100.00
11672;BME280;5892;43.412;24.612;2023-03-01T10:23:19;100849.88;;;5.77;100.00
11672;BME280;5892;43.412;24.612;2023-03-01T10:26:00;100857.22;;;5.77;100.00
11672;BME280;5892;43.412;24.612;2023-03-01T10:28:33;100788.78;;;5.33;100.00
11672;BME280;5892;43.412;24.612;2023-03-01T10:31:02;100843.63;;;5.77;100.00
11672;BME280;5892;43.412;24.612;2023-03-01T10:33:32;100839.25;;;5.76;100.00
11672;BME280;5892;43.412;24.612;2023-03-01T10:36:02;100772.78;;;5.41;100.00
11672;BME280;5892;43.412;24.612;2023-03-01T10:38:31;100825.16;;;5.79;100.00
11672;BME280;5892;43.412;24.612;2023-03-01T10:40:59;100835.03;;;5.90;100.00
11672;BME280;5892;43.412;24.612;2023-03-01T10:43:43;100842.66;;;5.98;100.00
11672;BME280;5892;43.412;24.612;2023-03-01T10:46:23;100831.78;;;6.03;100.00
11672;BME280;5892;43.412;24.612;2023-03-01T10:49:06;100819.81;;;6.04;100.00
11672;BME280;5892;43.412;24.612;2023-03-01T10:51:33;100815.47;;;6.03;100.00
11672;BME280;5892;43.412;24.612;2023-03-01T10:54:01;100829.91;;;6.19;100.00
11672;BME280;5892;43.412;24.612;2023-03-01T10:56:46;100817.13;;;6.14;100.00
11672;BME280;5892;43.412;24.612;2023-03-01T10:59:22;100809.53;;;6.16;100.00
11672;BME280;5892;43.412;24.612;2023-03-01T11:02:03;100805.16;;;6.10;100.00
11672;BME280;5892;43.412;24.612;2023-03-01T11:04:32;100802.44;;;6.15;100.00
11672;BME280;5892;43.412;24.612;2023-03-01T11:07:00;100782.84;;;6.13;100.00
11672;BME280;5892;43.412;24.612;2023-03-01T11:09:31;100714.16;;;5.71;100.00
11672;BME280;5892;43.412;24.612;2023-03-01T11:12:04;100788.31;;;6.33;100.00
11672;BME280;5892;43.412;24.612;2023-03-01T11:14:36;100767.63;;;6.17;100.00
11672;BME280;5892;43.412;24.612;2023-03-01T11:17:14;100722.44;;;6.01;100.00
11672;BME280;5892;43.412;24.612;2023-03-01T11:20:01;100767.63;;;6.27;100.00
11672;BME280;5892;43.412;24.612;2023-03-01T11:22:30;100789.41;;;6.53;100.00
11672;BME280;5892;43.412;24.612;2023-03-01T11:25:00;100780.44;;;6.57;100.00
11672;BME280;5892;43.412;24.612;2023-03-01T11:27:32;100774.97;;;6.67;100.00
11672;BME280;5892;43.412;24.612;2023-03-01T11:30:03;100763.28;;;6.62;100.00
11672;BME280;5892;43.412;24.612;2023-03-01T11:32:40;100769.53;;;6.57;100.00
11672;BME280;5892;43.412;24.612;2023-03-01T11:35:15;100770.88;;;6.60;100.00
11672;BME280;5892;43.412;24.612;2023-03-01T11:37:50;100770.34;;;6.73;100.00
11672;BME280;5892;43.412;24.612;2023-03-01T11:40:24;100769.25;;;6.84;100.00
11672;BME280;5892;43.412;24.612;2023-03-01T11:43:01;100713.19;;;6.37;100.00
11672;BME280;5892;43.412;24.612;2023-03-01T11:45:47;100744.19;;;6.77;100.00
11672;BME280;5892;43.412;24.612;2023-03-01T11:48:42;100755.63;;;6.84;100.00
11672;BME280;5892;43.412;24.612;2023-03-01T11:51:19;100758.63;;;6.82;100.00
11672;BME280;5892;43.412;24.612;2023-03-01T11:54:04;100763.25;;;6.87;100.00
11672;BME280;5892;43.412;24.612;2023-03-01T11:56:35;100690.88;;;6.46;100.00
11672;BME280;5892;43.412;24.612;2023-03-01T12:02:07;100753.44;;;6.86;100.00
11672;BME280;5892;43.412;24.612;2023-03-01T12:04:54;100702.28;;;6.53;100.00
11672;BME280;5892;43.412;24.612;2023-03-01T12:07:32;100672.91;;;6.29;100.00
11672;BME280;5892;43.412;24.612;2023-03-01T12:10:22;100735.72;;;6.89;100.00
11672;BME280;5892;43.412;24.612;2023-03-01T12:13:13;100717.78;;;6.77;100.00
11672;BME280;5892;43.412;24.612;2023-03-01T12:16:02;100733.84;;;6.74;100.00
11672;BME280;5892;43.412;24.612;2023-03-01T12:18:53;100671.00;;;6.15;100.00
11672;BME280;5892;43.412;24.612;2023-03-01T12:21:33;100736.84;;;6.77;100.00
11672;BME280;5892;43.412;24.612;2023-03-01T12:24:20;100736.03;;;6.77;100.00
11672;BME280;5892;43.412;24.612;2023-03-01T12:26:58;100737.13;;;6.66;100.00
11672;BME280;5892;43.412;24.612;2023-03-01T12:29:34;100730.59;;;6.67;100.00
11672;BME280;5892;43.412;24.612;2023-03-01T12:32:15;100728.69;;;6.52;100.00
11672;BME280;5892;43.412;24.612;2023-03-01T12:37:54;100708.84;;;6.42;100.00
11672;BME280;5892;43.412;24.612;2023-03-01T12:40:45;100732.50;;;6.61;100.00
11672;BME280;5892;43.412;24.612;2023-03-01T12:43:27;100724.59;;;6.65;100.00
11672;BME280;5892;43.412;24.612;2023-03-01T12:46:08;100715.34;;;6.61;100.00
11672;BME280;5892;43.412;24.612;2023-03-01T12:48:46;100683.25;;;6.37;100.00
11672;BME280;5892;43.412;24.612;2023-03-01T12:51:23;100727.88;;;6.67;100.00
11672;BME280;5892;43.412;24.612;2023-03-01T12:53:53;100731.16;;;6.64;100.00
11672;BME280;5892;43.412;24.612;2023-03-01T12:56:28;100728.13;;;6.60;100.00
11672;BME280;5892;43.412;24.612;2023-03-01T12:59:02;100726.22;;;6.66;100.00
11672;BME280;5892;43.412;24.612;2023-03-01T13:01:39;100727.63;;;6.53;100.00
11672;BME280;5892;43.412;24.612;2023-03-01T13:04:23;100732.25;;;6.58;100.00
11672;BME280;5892;43.412;24.612;2023-03-01T13:07:04;100734.97;;;6.63;100.00
11672;BME280;5892;43.412;24.612;2023-03-01T13:09:40;100689.78;;;6.36;100.00
11672;BME280;5892;43.412;24.612;2023-03-01T13:12:44;100727.03;;;6.76;100.00
11672;BME280;5892;43.412;24.612;2023-03-01T13:15:41;100730.06;;;6.75;100.00
11672;BME280;5892;43.412;24.612;2023-03-01T13:18:32;100697.38;;;6.50;100.00